Time;durP1;ratioP1;P1;durP2;ratioP2;P2;SDS_P1;SDS_P2;PMS_P1;PMS_P2;Temp;Humidity;BMP_temperature;BMP_pressure;BME280_temperature;BME280_humidity;BME280_pressure;Samples;Min_cycle;Max_cycle;Signal;HPM_P1;HPM_P2
2021/12/25 00:02:13;;;;;;;27.90;18.12;;;;;;;0.62;94.69;96776.95;1723828;81;20936;-57
2021/12/25 00:04:40;;;;;;;29.15;20.37;;;;;;;0.65;93.91;96783.63;1757732;80;20992;-57
2021/12/25 00:07:07;;;;;;;22.10;14.23;;;;;;;0.62;92.95;96786.80;1779595;80;20996;-57
2021/12/25 00:09:33;;;;;;;24.27;18.40;;;;;;;0.62;92.38;96778.80;1738077;81;21056;-57
2021/12/25 00:12:00;;;;;;;10.00;6.40;;;;;;;0.66;92.43;96779.91;1764347;80;21545;-57
2021/12/25 00:14:27;;;;;;;35.10;18.27;;;;;;;0.70;91.95;96788.52;1738434;82;20961;-57
2021/12/25 00:16:57;;;;;;;19.15;9.05;;;;;;;0.71;91.76;96795.46;1751595;80;21000;-57
2021/12/25 00:19:23;;;;;;;19.20;11.57;;;;;;;0.71;91.30;96791.47;1748611;80;21500;-56
2021/12/25 00:21:50;;;;;;;20.27;8.38;;;;;;;0.75;91.34;96805.09;1745623;82;21542;-57
2021/12/25 00:24:17;;;;;;;17.57;7.53;;;;;;;0.78;91.13;96797.95;1744913;81;21402;-57
2021/12/25 00:26:53;;;;;;;12.90;6.33;;;;;;;0.81;91.18;96806.26;1743522;80;21008;-57
2021/12/25 00:34:45;;;;;;;8.30;4.58;;;;;;;0.79;89.97;96817.70;1737374;82;21465;-58
2021/12/25 00:37:12;;;;;;;49.53;18.20;;;;;;;0.86;90.15;96821.53;1737526;82;21405;-58
2021/12/25 00:39:39;;;;;;;29.00;13.08;;;;;;;0.85;90.00;96833.23;1737300;82;20977;-58
2021/12/25 00:42:07;;;;;;;52.98;20.35;;;;;;;0.89;90.02;96837.56;1764225;81;21044;-58
2021/12/25 00:44:34;;;;;;;11.43;7.10;;;;;;;0.90;90.20;96840.51;1764046;80;21433;-58
2021/12/25 00:47:01;;;;;;;124.90;43.80;;;;;;;0.90;89.94;96847.98;1739972;82;20965;-58
2021/12/25 00:49:28;;;;;;;41.98;17.87;;;;;;;0.88;89.79;96847.42;1764126;81;21334;-58
2021/12/25 00:51:54;;;;;;;19.23;8.48;;;;;;;0.90;89.77;96859.18;1764177;80;21362;-58
2021/12/25 00:54:22;;;;;;;14.68;6.60;;;;;;;0.97;89.85;96864.62;1736237;82;21060;-58
2021/12/25 00:56:49;;;;;;;12.98;5.92;;;;;;;0.86;89.13;96863.41;1739978;82;20969;-57
2021/12/25 00:59:16;;;;;;;18.02;9.13;;;;;;;0.88;89.36;96870.09;1739715;82;21098;-57
2021/12/25 01:01:43;;;;;;;43.08;17.55;;;;;;;0.87;89.58;96863.16;1739808;82;21280;-57
2021/12/25 01:04:10;;;;;;;10.55;6.55;;;;;;;0.86;89.67;96867.41;1770688;79;21032;-57
2021/12/25 01:06:37;;;;;;;9.78;3.60;;;;;;;0.91;89.51;96872.80;1755136;80;21404;-57
2021/12/25 01:09:04;;;;;;;13.20;9.33;;;;;;;0.90;89.40;96872.52;1753403;80;20998;-57
2021/12/25 01:11:32;;;;;;;24.52;13.72;;;;;;;0.89;89.49;96888.24;1776522;80;20972;-57
2021/12/25 01:14:07;;;;;;;8.58;5.30;;;;;;;0.87;89.71;96900.50;1730583;82;21554;-57
2021/12/25 01:29:53;;;;;;;5.78;3.92;;;;;;;0.86;89.29;96930.89;1748114;81;21463;-57
2021/12/25 01:37:36;;;;;;;8.43;4.05;;;;;;;0.79;89.52;96934.24;1737729;82;21055;-57
2021/12/25 01:40:13;;;;;;;11.93;6.05;;;;;;;0.81;89.46;96930.27;1734263;82;22068;-57
2021/12/25 01:47:48;;;;;;;18.10;8.63;;;;;;;0.69;90.95;96937.56;1737307;82;20993;-57
2021/12/25 01:50:20;;;;;;;6.60;4.12;;;;;;;0.69;90.61;96938.09;1739708;82;21036;-57
2021/12/25 01:52:47;;;;;;;10.53;5.12;;;;;;;0.71;90.00;96931.45;1739017;82;21581;-57
2021/12/25 01:55:19;;;;;;;10.05;4.58;;;;;;;0.70;89.85;96919.70;1737059;80;21388;-57
2021/12/25 01:57:46;;;;;;;7.97;4.75;;;;;;;0.73;89.79;96929.87;1737582;82;21052;-58
2021/12/25 02:00:29;;;;;;;9.03;5.12;;;;;;;0.77;89.73;96916.32;1737304;80;20965;-58
2021/12/25 02:02:56;;;;;;;6.60;4.42;;;;;;;0.72;89.66;96932.27;1737582;82;20979;-57
2021/12/25 02:05:23;;;;;;;10.38;5.28;;;;;;;0.74;89.74;96928.30;1744262;80;21673;-57
2021/12/25 02:07:50;;;;;;;8.93;4.78;;;;;;;0.78;89.67;96927.30;1758472;81;21520;-57
2021/12/25 02:10:19;;;;;;;6.25;3.98;;;;;;;0.80;89.59;96930.00;1738564;80;21389;-57
2021/12/25 02:12:47;;;;;;;;;;;;;;;0.81;89.46;96922.80;1740181;82;20993;-57
2021/12/25 02:15:18;;;;;;;5.57;3.77;;;;;;;0.82;89.41;96911.88;1753262;81;20481;-56
2021/12/25 02:20:28;;;;;;;8.80;4.33;;;;;;;0.80;89.37;96926.00;1742197;80;21444;-58
2021/12/25 02:22:55;;;;;;;7.72;4.45;;;;;;;0.80;89.26;96944.66;1737191;82;20993;-58
2021/12/25 02:25:22;;;;;;;6.42;4.33;;;;;;;0.79;89.17;96946.25;1747841;81;28324;-59
2021/12/25 02:27:49;;;;;;;11.15;5.22;;;;;;;0.75;89.19;96955.77;1758864;81;22152;-57
2021/12/25 02:30:16;;;;;;;7.72;4.47;;;;;;;0.76;89.25;96954.19;1739392;80;21088;-57
2021/12/25 02:32:44;;;;;;;10.18;5.42;;;;;;;0.77;89.22;96957.16;1737497;82;21068;-57
2021/12/25 02:35:13;;;;;;;7.80;4.33;;;;;;;0.74;89.11;96962.95;1739382;81;21039;-57
2021/12/25 02:37:40;;;;;;;7.70;4.90;;;;;;;0.74;89.13;96966.16;1745904;81;21000;-57
2021/12/25 02:40:08;;;;;;;6.53;4.75;;;;;;;0.75;89.11;96967.23;1737310;82;20953;-57
2021/12/25 02:42:35;;;;;;;8.33;4.28;;;;;;;0.77;89.15;96966.98;1737797;82;21389;-57
2021/12/25 02:45:04;;;;;;;7.62;4.42;;;;;;;0.76;89.07;96978.19;1737239;82;21279;-57
2021/12/25 02:47:31;;;;;;;5.05;3.55;;;;;;;0.77;89.33;96981.66;1737719;82;21004;-57
2021/12/25 02:49:58;;;;;;;10.30;5.97;;;;;;;0.78;89.18;96980.11;1737378;82;21068;-57
2021/12/25 02:52:25;;;;;;;9.45;5.60;;;;;;;0.81;89.21;96978.80;1739313;82;21000;-57
2021/12/25 02:54:52;;;;;;;10.63;4.90;;;;;;;0.82;89.06;96981.75;1741003;80;21290;-57
2021/12/25 02:57:18;;;;;;;8.48;4.92;;;;;;;0.82;89.07;96984.42;1737438;82;20981;-57
2021/12/25 02:59:45;;;;;;;7.53;4.25;;;;;;;0.83;89.00;96992.70;1738057;80;21004;-57
2021/12/25 03:02:16;;;;;;;9.03;5.72;;;;;;;0.82;88.93;97003.89;1746955;81;21047;-57
2021/12/25 03:04:47;;;;;;;7.65;4.28;;;;;;;0.81;88.78;97012.14;1751913;81;21499;-57
2021/12/25 03:07:14;;;;;;;8.48;4.58;;;;;;;0.81;88.70;97008.14;1748765;80;21033;-57
2021/12/25 03:09:41;;;;;;;6.60;4.45;;;;;;;0.83;88.75;97014.84;1737464;82;21012;-57
2021/12/25 03:12:11;;;;;;;5.97;4.62;;;;;;;0.87;88.76;97013.85;1737499;82;21072;-57
2021/12/25 03:15:02;;;;;;;7.95;3.77;;;;;;;0.88;88.66;97009.33;1737356;80;20966;-57
2021/12/25 03:17:10;;;;;;;7.45;5.15;;;;;;;0.90;88.63;97016.55;1734058;82;21010;-57
2021/12/25 03:19:36;;;;;;;6.12;3.65;;;;;;;0.91;88.63;97030.98;1737472;82;21373;-57
2021/12/25 03:22:04;;;;;;;11.53;4.15;;;;;;;0.92;88.51;97029.12;1737592;82;20980;-57
2021/12/25 03:24:31;;;;;;;7.25;4.45;;;;;;;0.87;88.45;97031.72;1738230;81;21032;-57
2021/12/25 03:26:58;;;;;;;5.08;3.52;;;;;;;0.89;88.51;97031.75;1744967;81;21418;-57
2021/12/25 03:29:26;;;;;;;6.10;3.85;;;;;;;0.88;88.38;97027.47;1749852;81;21047;-57
2021/12/25 03:31:53;;;;;;;8.28;3.85;;;;;;;0.88;88.13;97034.14;1744245;81;22179;-57
2021/12/25 03:34:20;;;;;;;7.03;3.60;;;;;;;0.84;86.88;97026.32;1758234;81;21464;-57
2021/12/25 03:36:47;;;;;;;9.35;3.92;;;;;;;0.77;85.94;97032.33;1753459;81;21442;-57
2021/12/25 03:39:14;;;;;;;6.35;3.90;;;;;;;0.78;86.19;97040.11;1737326;82;21073;-57
2021/12/25 03:41:41;;;;;;;5.50;3.27;;;;;;;0.77;86.21;97044.33;1737586;82;21018;-57
2021/12/25 03:44:08;;;;;;;5.60;3.30;;;;;;;0.76;85.86;97046.19;1737557;82;21236;-57
2021/12/25 03:46:38;;;;;;;5.50;3.80;;;;;;;0.70;84.65;97043.17;1737597;82;21004;-57
2021/12/25 03:49:09;;;;;;;;;;;;;;;0.72;85.03;97052.26;1739841;81;21005;-57
2021/12/25 03:59:59;;;;;;;4.92;3.02;;;;;;;0.72;85.63;97052.26;1737250;81;20997;-57
2021/12/25 04:02:28;;;;;;;4.67;2.67;;;;;;;0.70;84.95;97063.17;1736687;82;21009;-57
2021/12/25 04:04:51;;;;;;;5.95;2.80;;;;;;;0.67;84.32;97063.63;1751900;80;20957;-56
2021/12/25 04:09:48;;;;;;;5.50;3.30;;;;;;;0.62;83.53;97080.08;1737377;82;21411;-56
2021/12/25 04:12:16;;;;;;;7.28;3.83;;;;;;;0.61;84.20;97079.80;1737439;82;21004;-57
2021/12/25 04:14:43;;;;;;;5.45;3.17;;;;;;;0.60;84.71;97086.16;1737400;81;26272;-57
2021/12/25 04:17:10;;;;;;;5.75;3.35;;;;;;;0.61;84.56;97086.47;1737408;82;20997;-57
2021/12/25 04:19:37;;;;;;;5.55;3.12;;;;;;;0.55;82.64;97093.55;1747830;80;21058;-57
2021/12/25 04:22:09;;;;;;;5.12;3.20;;;;;;;0.51;83.31;97092.39;1758533;81;21363;-57
2021/12/25 04:24:37;;;;;;;4.20;3.12;;;;;;;0.53;83.99;97084.98;1753798;76;21610;-57
2021/12/25 04:27:05;;;;;;;6.40;4.08;;;;;;;0.55;84.06;97082.89;1748883;80;21417;-57
2021/12/25 04:29:40;;;;;;;7.05;3.90;;;;;;;0.56;83.50;97095.16;1737983;80;21037;-57
2021/12/25 04:42:56;;;;;;;4.25;3.17;;;;;;;0.55;82.91;97097.02;1737667;82;21013;-57
2021/12/25 05:04:21;;;;;;;41.10;17.05;;;;;;;0.47;83.59;97135.25;1747879;80;22125;-57
2021/12/25 05:06:44;;;;;;;11.35;6.17;;;;;;;0.39;82.74;97140.95;1763293;81;21005;-57
2021/12/25 05:09:11;;;;;;;7.72;4.97;;;;;;;0.31;82.39;97142.64;1732468;82;20990;-57
2021/12/25 05:11:37;;;;;;;16.65;5.92;;;;;;;0.33;82.58;97149.34;1732182;81;21017;-57
2021/12/25 05:14:04;;;;;;;11.45;6.00;;;;;;;0.31;82.29;97147.97;1719238;82;21566;-57
2021/12/25 05:16:31;;;;;;;9.15;5.37;;;;;;;0.31;82.76;97160.77;1707828;81;20960;-57
2021/12/25 05:18:58;;;;;;;10.45;5.22;;;;;;;0.30;82.58;97162.34;1752155;81;21000;-57
2021/12/25 05:21:25;;;;;;;6.92;4.80;;;;;;;0.30;82.77;97161.02;1752130;81;21031;-57
2021/12/25 05:23:52;;;;;;;6.33;4.28;;;;;;;0.28;82.82;97154.59;1744979;82;22043;-57
2021/12/25 05:26:19;;;;;;;8.65;5.37;;;;;;;0.24;83.18;97154.76;1739334;81;21433;-57
2021/12/25 05:28:56;;;;;;;7.35;4.72;;;;;;;0.24;83.18;97155.56;1740594;82;22047;-57
2021/12/25 05:31:15;;;;;;;11.60;6.53;;;;;;;0.22;83.15;97158.99;1745103;82;21031;-57
2021/12/25 05:33:42;;;;;;;5.95;4.58;;;;;;;0.27;83.51;97163.63;1740984;81;20988;-57
2021/12/25 05:36:09;;;;;;;18.25;8.63;;;;;;;0.12;85.05;97165.44;1739515;80;20988;-57
2021/12/25 05:38:36;;;;;;;41.40;17.92;;;;;;;-0.05;86.50;97160.02;1739574;81;21012;-57
2021/12/25 05:41:03;;;;;;;17.65;9.43;;;;;;;-0.36;88.15;97163.02;1763966;79;20996;-57
2021/12/25 05:43:30;;;;;;;33.58;16.65;;;;;;;-0.60;89.79;97174.15;1740489;82;20969;-57
2021/12/25 05:45:57;;;;;;;19.40;11.10;;;;;;;-0.70;90.85;97179.22;1739648;82;20996;-57
2021/12/25 05:48:24;;;;;;;31.33;16.70;;;;;;;-0.78;91.05;97183.54;1747390;82;21031;-57
2021/12/25 05:50:51;;;;;;;19.00;10.25;;;;;;;-0.90;91.92;97194.97;1752550;81;21256;-57
2021/12/25 05:53:18;;;;;;;13.83;7.22;;;;;;;-0.90;91.54;97204.28;1745695;80;21440;-57
2021/12/25 05:55:45;;;;;;;22.70;12.30;;;;;;;-1.06;91.63;97207.56;1757626;81;21399;-57
2021/12/25 05:58:12;;;;;;;16.30;7.97;;;;;;;-1.09;91.29;97208.03;1740199;80;20994;-58
2021/12/25 06:00:39;;;;;;;11.18;6.33;;;;;;;-1.19;91.75;97207.23;1737317;82;21040;-57
2021/12/25 06:03:06;;;;;;;10.60;5.72;;;;;;;-1.20;92.04;97212.75;1737514;82;21354;-58
2021/12/25 06:05:32;;;;;;;7.85;5.25;;;;;;;-1.16;91.54;97220.07;1733800;79;21025;-58
2021/12/25 06:07:59;;;;;;;9.43;6.20;;;;;;;-1.14;91.54;97225.16;1737581;82;21413;-58
2021/12/25 06:10:26;;;;;;;11.38;6.65;;;;;;;-1.21;91.93;97230.55;1737297;82;21047;-58
2021/12/25 06:12:55;;;;;;;8.63;5.60;;;;;;;-1.27;90.81;97239.97;1753241;81;21051;-58
2021/12/25 06:15:23;;;;;;;14.43;8.98;;;;;;;-1.28;90.31;97251.61;1738763;79;21265;-58
2021/12/25 06:17:49;;;;;;;8.75;5.15;;;;;;;-1.36;91.11;97255.92;1737367;82;21068;-58
2021/12/25 06:20:16;;;;;;;8.88;5.60;;;;;;;-1.37;90.08;97254.27;1737360;81;21013;-57
2021/12/25 06:22:43;;;;;;;17.02;9.93;;;;;;;-1.36;90.10;97254.59;1737546;82;20998;-58
2021/12/25 06:25:10;;;;;;;7.10;5.60;;;;;;;-1.42;90.13;97271.70;1736186;81;20974;-58
2021/12/25 06:27:38;;;;;;;11.90;6.30;;;;;;;-1.43;90.11;97278.58;1740773;81;21407;-57
2021/12/25 06:30:07;;;;;;;9.18;4.78;;;;;;;-1.41;89.69;97280.49;1737222;81;21060;-57
2021/12/25 06:32:34;;;;;;;6.75;4.40;;;;;;;-1.51;88.92;97287.66;1737279;82;27270;-57
2021/12/25 06:35:01;;;;;;;8.13;5.60;;;;;;;-1.67;88.63;97302.02;1737340;82;20973;-58
2021/12/25 06:37:28;;;;;;;9.63;5.90;;;;;;;-1.60;88.96;97293.48;1737588;82;21064;-58
2021/12/25 06:39:54;;;;;;;16.07;7.90;;;;;;;-1.63;88.65;97298.69;1737436;82;21455;-58
2021/12/25 06:42:21;;;;;;;5.62;4.70;;;;;;;-1.74;88.50;97307.39;1737141;82;21417;-58
2021/12/25 06:44:48;;;;;;;9.88;5.45;;;;;;;-1.74;88.32;97310.86;1737323;82;21497;-58
2021/12/25 06:47:15;;;;;;;10.05;6.42;;;;;;;-1.75;88.76;97300.45;1737086;82;20996;-58
2021/12/25 06:49:42;;;;;;;9.30;5.80;;;;;;;-1.77;88.66;97310.50;1737412;82;20999;-58
2021/12/25 06:52:09;;;;;;;8.85;5.37;;;;;;;-1.78;88.83;97305.70;1737695;82;21399;-58
2021/12/25 06:54:36;;;;;;;37.25;16.02;;;;;;;-1.85;87.58;97298.30;1742088;80;20985;-58
2021/12/25 06:57:03;;;;;;;11.28;5.42;;;;;;;-1.85;87.98;97305.45;1763902;81;20977;-58
2021/12/25 06:59:30;;;;;;;24.25;12.18;;;;;;;-2.03;85.96;97311.53;1740634;82;21517;-58
2021/12/25 07:01:57;;;;;;;30.90;13.03;;;;;;;-2.15;85.46;97314.06;1777529;80;20977;-58
2021/12/25 07:04:24;;;;;;;13.75;6.92;;;;;;;-2.22;85.43;97314.64;1708128;82;21424;-58
2021/12/25 07:06:51;;;;;;;26.27;11.33;;;;;;;-2.12;85.83;97307.53;1713393;82;21039;-58
2021/12/25 07:09:18;;;;;;;38.60;17.25;;;;;;;-2.16;85.27;97311.63;1747762;81;21024;-58
2021/12/25 07:11:45;;;;;;;291.00;120.25;;;;;;;-2.19;85.13;97332.78;1750856;80;21381;-58
2021/12/25 07:14:12;;;;;;;158.72;75.47;;;;;;;-2.27;85.42;97334.37;1740124;81;20997;-58
2021/12/25 07:16:39;;;;;;;112.68;50.45;;;;;;;-2.34;84.66;97329.62;1741985;81;21443;-58
2021/12/25 07:19:06;;;;;;;163.00;86.65;;;;;;;-2.43;84.44;97328.25;1749157;80;21060;-58
2021/12/25 07:21:33;;;;;;;96.40;53.70;;;;;;;-2.40;84.68;97332.60;1764060;79;21044;-58
2021/12/25 07:24:00;;;;;;;115.37;59.65;;;;;;;-2.40;83.75;97351.17;1768624;80;21817;-58
2021/12/25 07:26:29;;;;;;;254.05;121.28;;;;;;;-2.47;82.71;97348.29;1772641;80;21443;-58
2021/12/25 07:28:55;;;;;;;109.32;57.98;;;;;;;-2.48;82.74;97355.41;1766764;80;21371;-58
2021/12/25 07:31:22;;;;;;;75.42;43.40;;;;;;;-2.45;83.50;97349.69;1773405;79;21020;-58
2021/12/25 07:33:49;;;;;;;53.75;35.63;;;;;;;-2.40;83.86;97356.48;1764131;81;21032;-58
2021/12/25 07:36:16;;;;;;;43.30;34.20;;;;;;;-2.38;84.23;97368.23;1729512;80;21060;-58
2021/12/25 07:38:43;;;;;;;17.48;13.88;;;;;;;-2.33;84.24;97366.55;1765463;80;21449;-58
2021/12/25 07:41:10;;;;;;;13.13;9.50;;;;;;;-2.27;84.45;97367.03;1747348;81;21449;-58
2021/12/25 07:43:37;;;;;;;186.90;75.32;;;;;;;-2.21;84.29;97372.53;1749788;81;21032;-58
2021/12/25 07:46:04;;;;;;;121.82;63.85;;;;;;;-2.21;84.03;97389.27;1763992;81;20961;-58
2021/12/25 07:48:33;;;;;;;30.00;15.88;;;;;;;-2.36;83.15;97384.75;1763914;80;21008;-57
2021/12/25 07:51:02;;;;;;;75.65;40.00;;;;;;;-2.26;83.81;97382.44;1764013;80;25313;-58
2021/12/25 07:53:32;;;;;;;36.63;19.73;;;;;;;-2.19;83.77;97387.72;1751585;80;21520;-58
2021/12/25 07:55:59;;;;;;;22.00;13.00;;;;;;;-2.23;83.98;97397.13;1754724;81;21007;-57
2021/12/25 07:58:26;;;;;;;25.32;17.35;;;;;;;-2.20;84.07;97390.08;1747256;81;21004;-57
2021/12/25 08:00:53;;;;;;;22.00;11.63;;;;;;;-2.27;84.28;97384.80;1754860;80;20996;-57
2021/12/25 08:03:20;;;;;;;16.27;7.65;;;;;;;-2.38;84.38;97388.95;1755157;81;21515;-57
2021/12/25 08:05:47;;;;;;;15.45;8.05;;;;;;;-2.38;84.39;97384.16;1755811;81;21451;-57
2021/12/25 08:08:14;;;;;;;21.17;10.43;;;;;;;-2.38;85.04;97391.61;1756089;81;20979;-57
2021/12/25 08:10:42;;;;;;;10.32;7.28;;;;;;;-2.47;84.77;97398.19;1756047;80;20968;-57
2021/12/25 08:13:09;;;;;;;28.20;13.10;;;;;;;-2.61;84.26;97393.45;1756588;81;21024;-57
2021/12/25 08:15:36;;;;;;;54.40;22.67;;;;;;;-2.60;85.08;97407.01;1756193;81;21047;-57
2021/12/25 08:18:03;;;;;;;22.35;13.55;;;;;;;-2.73;84.28;97408.92;1756574;81;21353;-57
2021/12/25 08:20:31;;;;;;;24.92;17.65;;;;;;;-2.73;84.49;97403.61;1756284;81;21059;-57
2021/12/25 08:22:58;;;;;;;21.90;15.32;;;;;;;-2.84;84.93;97405.87;1756483;81;21066;-57
2021/12/25 08:25:25;;;;;;;16.37;9.03;;;;;;;-2.80;85.64;97402.81;1755366;81;21012;-57
2021/12/25 08:27:53;;;;;;;20.92;13.65;;;;;;;-2.78;86.19;97404.74;1755998;80;21066;-56
2021/12/25 08:30:22;;;;;;;12.95;8.50;;;;;;;-2.71;86.24;97403.70;1756122;81;21032;-57
2021/12/25 08:32:52;;;;;;;16.07;11.95;;;;;;;-2.75;86.34;97411.75;1756041;81;21035;-57
2021/12/25 08:35:18;;;;;;;;;;;;;;;-2.68;86.38;97404.59;1758747;81;21014;-57
2021/12/25 08:37:45;;;;;;;28.80;17.73;;;;;;;-2.61;86.46;97404.05;1756098;80;20171;-57
2021/12/25 08:40:12;;;;;;;23.38;17.23;;;;;;;-2.58;86.52;97416.89;1755946;81;21467;-57
2021/12/25 08:42:45;;;;;;;24.75;13.30;;;;;;;-2.52;86.27;97424.53;1756192;81;21429;-57
2021/12/25 08:45:20;;;;;;;56.13;26.75;;;;;;;-2.59;86.19;97425.06;1755662;81;20949;-57
2021/12/25 08:47:38;;;;;;;25.40;18.65;;;;;;;-2.49;86.04;97425.42;1754590;80;21039;-56
2021/12/25 08:50:10;;;;;;;149.25;62.85;;;;;;;-2.62;86.44;97421.00;1756289;81;21043;-57
2021/12/25 08:52:38;;;;;;;54.03;23.35;;;;;;;-2.50;86.47;97414.51;1756331;80;20968;-57
2021/12/25 08:55:06;;;;;;;30.90;16.57;;;;;;;-2.56;86.91;97404.25;1756168;81;21661;-57
2021/12/25 08:57:33;;;;;;;15.32;9.08;;;;;;;-2.47;86.79;97404.01;1756118;81;21458;-57
2021/12/25 09:00:00;;;;;;;32.33;13.45;;;;;;;-2.43;86.80;97411.83;1756137;81;21023;-57
2021/12/25 09:02:27;;;;;;;43.15;16.93;;;;;;;-2.46;87.48;97414.41;1756028;81;20960;-57
2021/12/25 09:04:54;;;;;;;26.40;12.95;;;;;;;-2.41;87.15;97422.53;1756132;81;20972;-57
2021/12/25 09:07:21;;;;;;;17.48;9.98;;;;;;;-2.53;87.26;97434.84;1756082;81;21974;-57
2021/12/25 09:09:48;;;;;;;27.73;12.25;;;;;;;-2.46;87.40;97434.82;1755931;81;21468;-57
2021/12/25 09:12:16;;;;;;;23.60;11.38;;;;;;;-2.44;86.98;97426.13;1755850;81;20952;-56
2021/12/25 09:14:44;;;;;;;29.90;12.00;;;;;;;-2.55;87.47;97423.63;1756202;81;21048;-57
2021/12/25 09:17:11;;;;;;;16.48;7.45;;;;;;;-2.60;85.50;97425.58;1751368;80;21087;-57
2021/12/25 09:19:37;;;;;;;14.70;6.80;;;;;;;-2.63;85.52;97427.34;1774027;79;21324;-57
2021/12/25 09:22:06;;;;;;;8.80;5.30;;;;;;;-2.66;84.95;97426.92;1773230;79;20984;-57
2021/12/25 10:16:31;;;;;;;24.65;12.07;;;;;;;-2.84;77.12;97413.01;1738495;80;21020;-57
2021/12/25 10:19:18;;;;;;;30.68;13.08;;;;;;;-2.73;77.82;97412.38;1716912;83;21456;-57
2021/12/25 10:21:45;;;;;;;22.13;10.60;;;;;;;-2.72;77.51;97411.87;1716870;83;22022;-57
2021/12/25 10:24:24;;;;;;;30.72;12.85;;;;;;;-2.58;77.79;97406.79;1717246;82;21064;-57
2021/12/25 10:26:47;;;;;;;25.15;10.88;;;;;;;-2.43;78.94;97407.85;1715816;83;21020;-57
2021/12/25 10:29:26;;;;;;;13.35;7.75;;;;;;;-2.34;78.48;97418.52;1717329;82;21098;-57
2021/12/25 10:31:58;;;;;;;13.68;8.08;;;;;;;-2.36;77.35;97412.62;1747958;82;21068;-57
2021/12/25 10:34:27;;;;;;;16.17;8.65;;;;;;;-2.38;76.95;97416.81;1748643;82;21020;-57
2021/12/25 10:36:54;;;;;;;12.25;6.72;;;;;;;-2.44;76.92;97422.15;1735889;81;21060;-57
2021/12/25 10:39:26;;;;;;;10.40;6.25;;;;;;;-2.50;75.39;97418.48;1735660;82;21052;-57
2021/12/25 10:42:10;;;;;;;16.85;9.55;;;;;;;-2.40;76.68;97413.54;1730022;82;21007;-57
2021/12/25 10:44:36;;;;;;;12.53;6.72;;;;;;;-2.59;76.01;97411.28;1730794;82;21211;-57
2021/12/25 10:47:15;;;;;;;18.95;8.55;;;;;;;-2.82;73.57;97414.12;1750932;80;20979;-57
2021/12/25 10:49:48;;;;;;;9.73;5.53;;;;;;;-2.93;75.16;97416.92;1746044;81;21515;-57
2021/12/25 10:52:27;;;;;;;12.33;6.37;;;;;;;-2.88;75.75;97424.56;1718425;82;21039;-57
2021/12/25 10:55:04;;;;;;;9.68;5.33;;;;;;;-2.83;76.80;97431.87;1717287;82;21538;-57
2021/12/25 10:57:52;;;;;;;15.95;7.83;;;;;;;-2.99;76.13;97436.30;1716831;83;21414;-57
2021/12/25 11:00:27;;;;;;;25.75;12.05;;;;;;;-2.89;78.11;97434.87;1716975;83;21020;-57
2021/12/25 11:03:06;;;;;;;15.68;8.80;;;;;;;-2.81;77.60;97437.80;1746390;82;21012;-57
2021/12/25 11:05:45;;;;;;;13.62;7.37;;;;;;;-2.81;77.86;97429.03;1750980;81;21471;-57
2021/12/25 11:08:21;;;;;;;11.85;6.08;;;;;;;-2.83;77.25;97442.48;1745112;82;21047;-57
2021/12/25 11:11:05;;;;;;;32.23;17.32;;;;;;;-2.91;77.03;97432.91;1744128;82;21443;-57
2021/12/25 11:13:53;;;;;;;19.25;10.65;;;;;;;-2.85;76.92;97440.05;1743842;81;21003;-57
2021/12/25 11:16:30;;;;;;;9.65;5.15;;;;;;;-2.78;77.34;97440.03;1743529;82;21671;-57
2021/12/25 11:19:10;;;;;;;10.55;5.90;;;;;;;-2.72;76.64;97445.02;1735652;81;20986;-57
2021/12/25 11:21:54;;;;;;;9.85;4.37;;;;;;;-2.73;75.93;97441.55;1700313;82;21018;-57
2021/12/25 11:24:32;;;;;;;14.28;5.78;;;;;;;-2.84;74.37;97444.32;1736536;81;21440;-57
2021/12/25 11:27:00;;;;;;;10.53;4.70;;;;;;;-2.77;75.32;97446.14;1736479;81;21097;-58
2021/12/25 11:29:29;;;;;;;19.65;9.10;;;;;;;-2.77;74.31;97442.98;1735103;82;20974;-57
2021/12/25 11:31:56;;;;;;;15.15;8.38;;;;;;;-2.62;76.64;97431.61;1744162;81;21020;-57
2021/12/25 11:34:25;;;;;;;9.98;4.95;;;;;;;-2.72;75.93;97428.59;1737445;81;21009;-57
2021/12/25 11:36:54;;;;;;;17.17;6.05;;;;;;;-2.78;73.94;97424.12;1733593;81;21303;-57
2021/12/25 11:39:23;;;;;;;12.85;4.83;;;;;;;-2.69;75.70;97422.86;1729502;82;20986;-57
2021/12/25 11:41:55;;;;;;;22.13;8.23;;;;;;;-2.67;76.18;97427.95;1765027;80;20958;-57
2021/12/25 11:44:45;;;;;;;21.82;9.15;;;;;;;-2.77;75.67;97426.25;1745369;81;21058;-57
2021/12/25 11:47:38;;;;;;;5.85;3.40;;;;;;;-2.71;76.87;97417.47;1745949;80;20982;-57
2021/12/25 11:50:09;;;;;;;21.42;10.50;;;;;;;-2.68;77.03;97421.02;1730992;82;21903;-57
2021/12/25 11:52:47;;;;;;;12.25;8.10;;;;;;;-2.69;74.76;97423.38;1733043;82;20966;-57
2021/12/25 12:00:44;;;;;;;25.48;10.60;;;;;;;-2.65;76.34;97425.41;1751991;82;21055;-57
2021/12/25 12:03:39;;;;;;;13.70;7.33;;;;;;;-2.72;77.07;97424.61;1736386;82;21440;-57
2021/12/25 12:06:06;;;;;;;100.53;36.88;;;;;;;-2.70;77.29;97431.03;1736143;82;21083;-57
2021/12/25 12:08:58;;;;;;;101.35;40.38;;;;;;;-2.87;76.88;97433.33;1736474;82;21052;-57
2021/12/25 12:11:28;;;;;;;51.33;22.37;;;;;;;-2.85;76.95;97438.72;1734376;82;21489;-57
2021/12/25 12:14:25;;;;;;;56.48;25.85;;;;;;;-2.78;77.58;97446.66;1736192;82;20985;-57
2021/12/25 12:16:59;;;;;;;70.62;31.30;;;;;;;-2.79;77.13;97446.36;1736198;82;22180;-57
2021/12/25 12:19:40;;;;;;;34.08;14.15;;;;;;;-2.81;77.34;97443.11;1736474;82;21485;-57
2021/12/25 12:22:23;;;;;;;20.43;10.70;;;;;;;-2.79;77.93;97442.38;1736320;82;21055;-57
2021/12/25 12:25:11;;;;;;;20.17;9.20;;;;;;;-2.74;77.83;97447.05;1735556;82;21485;-57
2021/12/25 12:27:39;;;;;;;35.90;15.23;;;;;;;-2.79;77.60;97446.36;1719569;82;21036;-57
2021/12/25 12:30:10;;;;;;;28.67;12.50;;;;;;;-2.76;77.12;97451.75;1740474;82;21720;-57
2021/12/25 12:32:45;;;;;;;43.00;15.93;;;;;;;-2.68;77.35;97455.50;1748613;80;21004;-57
2021/12/25 12:35:34;;;;;;;58.40;32.73;;;;;;;-2.63;77.76;97454.38;1745639;81;20996;-57
2021/12/25 12:38:38;;;;;;;16.52;9.38;;;;;;;-2.76;77.37;97453.89;1747574;81;20984;-57
2021/12/25 12:41:20;;;;;;;11.30;5.67;;;;;;;-2.81;76.34;97453.72;1735803;82;20950;-57
2021/12/25 12:44:14;;;;;;;17.37;7.30;;;;;;;-2.75;76.85;97456.84;1752013;82;21246;-56
2021/12/25 12:46:58;;;;;;;9.45;4.67;;;;;;;-2.69;77.23;97463.97;1747882;82;20938;-57
2021/12/25 12:49:53;;;;;;;12.37;5.60;;;;;;;-2.77;77.17;97465.52;1739451;81;21539;-57
2021/12/25 12:52:39;;;;;;;21.02;8.70;;;;;;;-2.86;77.22;97464.12;1742124;82;20973;-58
2021/12/25 12:55:25;;;;;;;45.15;19.42;;;;;;;-2.98;76.81;97456.00;1745504;81;21412;-57
2021/12/25 12:58:16;;;;;;;40.75;18.15;;;;;;;-3.02;77.55;97467.21;1744072;81;21581;-57
2021/12/25 13:00:55;;;;;;;32.33;15.43;;;;;;;-2.94;77.47;97464.34;1745292;80;21023;-57
2021/12/25 13:03:23;;;;;;;43.02;16.45;;;;;;;-2.91;77.22;97470.55;1745285;80;20967;-57
2021/12/25 13:06:02;;;;;;;22.48;10.38;;;;;;;-3.03;77.18;97482.81;1743665;81;20961;-57
2021/12/25 13:08:30;;;;;;;26.93;10.98;;;;;;;-3.08;77.33;97484.75;1713852;83;21028;-56
2021/12/25 13:11:08;;;;;;;21.97;12.50;;;;;;;-3.09;76.40;97489.74;1748815;80;21041;-57
2021/12/25 13:13:38;;;;;;;25.97;10.00;;;;;;;-3.05;77.03;97494.14;1776992;80;21009;-57
2021/12/25 13:16:11;;;;;;;29.90;10.93;;;;;;;-3.08;75.86;97493.20;1773167;80;21025;-57
2021/12/25 13:18:45;;;;;;;28.25;13.80;;;;;;;-3.02;76.96;97501.16;1751862;82;21394;-57
2021/12/25 13:21:22;;;;;;;22.65;9.10;;;;;;;-2.97;77.07;97496.58;1751693;80;20968;-57
2021/12/25 13:23:56;;;;;;;14.83;6.60;;;;;;;-2.97;77.12;97492.60;1752039;81;21578;-56
2021/12/25 13:26:34;;;;;;;13.03;5.67;;;;;;;-2.98;77.11;97494.44;1750823;80;21467;-57
2021/12/25 13:28:57;;;;;;;11.70;6.05;;;;;;;-2.96;76.88;97496.37;1751159;81;21389;-57
2021/12/25 13:31:26;;;;;;;22.17;8.40;;;;;;;-2.93;76.71;97495.13;1753505;80;21468;-58
2021/12/25 13:33:57;;;;;;;17.23;9.15;;;;;;;-2.92;76.48;97496.25;1714454;83;20992;-57
2021/12/25 13:36:29;;;;;;;21.50;11.48;;;;;;;-2.94;76.59;97506.77;1747717;80;21017;-57
2021/12/25 13:39:01;;;;;;;26.50;13.00;;;;;;;-2.95;76.69;97501.97;1751854;81;20945;-57
2021/12/25 13:41:50;;;;;;;52.05;24.82;;;;;;;-3.00;76.60;97500.44;1752413;80;21456;-57
2021/12/25 13:44:22;;;;;;;50.00;18.35;;;;;;;-3.05;76.30;97508.72;1751979;81;21048;-57
2021/12/25 13:46:53;;;;;;;22.73;11.50;;;;;;;-3.13;76.65;97517.19;1760596;80;21009;-57
2021/12/25 13:49:36;;;;;;;51.55;17.85;;;;;;;-3.13;75.40;97520.34;1777642;80;21996;-57
2021/12/25 13:52:22;;;;;;;30.85;11.45;;;;;;;-3.06;76.41;97523.81;1769411;80;22856;-57
2021/12/25 13:55:01;;;;;;;53.48;23.95;;;;;;;-3.06;76.31;97523.81;1777429;80;21474;-57